createdAt,value
2018-12-16T00:02:19.816Z,27.90
2018-12-16T00:04:50.656Z,23.07
2018-12-16T00:07:21.509Z,23.93
2018-12-16T00:09:50.377Z,25.00
2018-12-16T00:12:19.272Z,24.30
2018-12-16T00:14:48.282Z,23.90
2018-12-16T00:17:18.288Z,22.53
2018-12-16T00:19:47.164Z,22.97
2018-12-16T00:22:16.073Z,25.63
2018-12-16T00:24:44.933Z,22.93
2018-12-16T00:27:14.075Z,31.00
2018-12-16T00:29:43.055Z,24.43
2018-12-16T00:32:11.978Z,23.73
2018-12-16T00:34:40.820Z,25.57
2018-12-16T00:37:10.260Z,26.20
2018-12-16T00:39:39.117Z,25.90
2018-12-16T00:42:07.992Z,27.80
2018-12-16T00:44:36.902Z,25.80
2018-12-16T00:47:05.895Z,29.90
2018-12-16T00:49:34.814Z,26.87
2018-12-16T00:52:03.780Z,25.93
2018-12-16T00:54:33.276Z,27.00
2018-12-16T00:57:02.101Z,23.97
2018-12-16T00:59:31.101Z,22.07
2018-12-16T01:01:59.984Z,25.30
2018-12-16T01:04:28.948Z,23.77
2018-12-16T01:06:57.834Z,23.77
2018-12-16T01:09:27.117Z,29.60
2018-12-16T01:11:56.647Z,24.77
2018-12-16T01:14:25.532Z,31.53
2018-12-16T01:16:54.464Z,25.93
2018-12-16T01:19:23.296Z,27.23
2018-12-16T01:21:53.120Z,28.47
2018-12-16T01:24:22.108Z,27.10
2018-12-16T01:26:51.014Z,25.07
2018-12-16T01:29:19.888Z,23.90
2018-12-16T01:31:48.795Z,28.70
2018-12-16T01:34:17.685Z,22.47
2018-12-16T01:36:46.565Z,25.67
2018-12-16T01:39:15.452Z,25.90
2018-12-16T01:41:44.344Z,24.57
2018-12-16T01:44:13.225Z,24.70
2018-12-16T01:46:42.117Z,22.70
2018-12-16T01:49:11.017Z,21.60
2018-12-16T01:51:39.952Z,23.93
2018-12-16T01:54:08.783Z,26.87
2018-12-16T01:56:37.677Z,25.07
2018-12-16T01:59:06.552Z,25.50
2018-12-16T02:01:35.441Z,30.13
2018-12-16T02:04:04.369Z,29.70
2018-12-16T02:06:33.461Z,29.90
2018-12-16T02:09:02.633Z,24.73
2018-12-16T02:11:33.549Z,26.03
2018-12-16T02:14:03.378Z,27.07
2018-12-16T02:16:32.211Z,24.23
2018-12-16T02:19:01.073Z,28.93
2018-12-16T02:21:29.978Z,29.90
2018-12-16T02:23:58.784Z,26.03
2018-12-16T02:26:27.644Z,31.20
2018-12-16T02:28:56.534Z,30.00
2018-12-16T02:31:25.966Z,34.30
2018-12-16T02:33:55.337Z,34.33
2018-12-16T02:36:24.241Z,30.00
2018-12-16T02:38:53.068Z,31.27
2018-12-16T02:41:21.907Z,30.97
2018-12-16T02:43:50.729Z,32.77
2018-12-16T02:46:19.600Z,31.70
2018-12-16T02:48:48.490Z,30.03
2018-12-16T02:51:17.550Z,30.73
2018-12-16T02:53:46.586Z,28.80
2018-12-16T02:56:15.450Z,32.03
2018-12-16T02:58:44.342Z,32.63
2018-12-16T03:01:13.241Z,30.87
2018-12-16T03:03:42.145Z,33.17
2018-12-16T03:06:12.553Z,30.97
2018-12-16T03:08:41.442Z,27.53
2018-12-16T03:11:10.409Z,29.97
2018-12-16T03:13:39.337Z,33.43
2018-12-16T03:16:08.338Z,31.63
2018-12-16T03:18:37.319Z,31.40
2018-12-16T03:21:06.188Z,34.10
2018-12-16T03:23:35.093Z,29.03
2018-12-16T03:26:04.201Z,27.20
2018-12-16T03:28:33.078Z,30.47
2018-12-16T03:31:01.969Z,30.87
2018-12-16T03:33:30.970Z,31.10
2018-12-16T03:35:59.858Z,29.60
2018-12-16T03:38:28.710Z,27.37
2018-12-16T03:40:57.685Z,30.90
2018-12-16T03:43:26.641Z,31.43
2018-12-16T03:45:55.530Z,29.90
2018-12-16T03:48:24.420Z,30.17
2018-12-16T03:50:53.400Z,30.97
2018-12-16T03:53:22.281Z,32.40
2018-12-16T03:55:51.187Z,35.07
2018-12-16T03:58:20.071Z,29.33
2018-12-16T04:00:49.065Z,33.30
2018-12-16T04:03:18.003Z,33.37
2018-12-16T04:05:46.989Z,33.13
2018-12-16T04:08:15.950Z,36.07
2018-12-16T04:10:44.837Z,32.40
2018-12-16T04:13:13.714Z,35.13
2018-12-16T04:15:42.748Z,29.73
2018-12-16T04:18:11.615Z,31.53
2018-12-16T04:20:40.503Z,36.07
2018-12-16T04:23:09.396Z,33.73
2018-12-16T04:25:38.404Z,30.73
2018-12-16T04:28:09.358Z,33.80
2018-12-16T04:30:38.412Z,31.17
2018-12-16T04:33:07.283Z,32.97
2018-12-16T04:35:36.207Z,34.60
2018-12-16T04:38:05.109Z,30.93
2018-12-16T04:40:34.214Z,36.47
2018-12-16T04:43:03.212Z,38.17
2018-12-16T04:45:32.084Z,34.83
2018-12-16T04:48:01.044Z,33.27
2018-12-16T04:50:29.937Z,36.87
2018-12-16T04:52:58.832Z,36.43
2018-12-16T04:55:27.772Z,34.80
2018-12-16T04:57:56.645Z,33.23
2018-12-16T05:00:25.818Z,32.70
2018-12-16T05:02:54.727Z,29.27
2018-12-16T05:05:23.680Z,35.83
2018-12-16T05:07:52.670Z,36.30
2018-12-16T05:10:28.322Z,30.77
2018-12-16T05:12:57.261Z,32.53
2018-12-16T05:15:26.272Z,32.00
2018-12-16T05:17:55.225Z,30.07
2018-12-16T05:20:24.204Z,32.93
2018-12-16T05:22:53.124Z,34.53
2018-12-16T05:25:21.964Z,33.73
2018-12-16T05:27:50.872Z,32.60
2018-12-16T05:30:19.811Z,34.20
2018-12-16T05:32:48.669Z,30.83
2018-12-16T05:35:17.477Z,36.30
2018-12-16T05:37:46.461Z,34.63
2018-12-16T05:40:15.337Z,35.23
2018-12-16T05:42:44.270Z,32.60
2018-12-16T05:45:13.174Z,29.00
2018-12-16T05:47:42.102Z,32.27
2018-12-16T05:50:11.373Z,36.37
2018-12-16T05:52:40.290Z,30.97
2018-12-16T05:55:09.181Z,34.47
2018-12-16T05:57:38.305Z,31.77
2018-12-16T06:00:08.281Z,33.77
2018-12-16T06:02:37.277Z,29.90
2018-12-16T06:05:06.397Z,35.50
2018-12-16T06:07:35.299Z,32.50
2018-12-16T06:10:04.504Z,31.13
2018-12-16T06:12:33.399Z,33.37
2018-12-16T06:20:19.653Z,29.50
2018-12-16T06:22:48.543Z,29.90
2018-12-16T06:25:17.665Z,31.30
2018-12-16T06:27:47.257Z,28.77
2018-12-16T06:30:16.585Z,28.70
2018-12-16T06:32:45.481Z,35.83
2018-12-16T06:35:14.352Z,29.50
2018-12-16T06:37:43.245Z,30.37
2018-12-16T06:40:12.142Z,29.57
2018-12-16T06:42:40.964Z,29.53
2018-12-16T06:45:10.505Z,32.13
2018-12-16T06:47:39.391Z,30.53
2018-12-16T06:50:08.652Z,26.43
2018-12-16T06:52:37.624Z,30.20
2018-12-16T06:55:06.820Z,27.80
2018-12-16T06:57:35.698Z,29.73
2018-12-16T07:00:05.542Z,27.80
2018-12-16T07:02:34.607Z,36.80
2018-12-16T07:05:03.683Z,32.63
2018-12-16T07:07:32.596Z,32.53
2018-12-16T07:10:02.031Z,29.50
2018-12-16T07:12:30.940Z,26.27
2018-12-16T07:14:59.898Z,28.07
2018-12-16T07:17:28.864Z,29.63
2018-12-16T07:19:57.820Z,33.27
2018-12-16T07:22:26.795Z,29.63
2018-12-16T07:24:55.771Z,29.60
2018-12-16T07:27:24.650Z,26.37
2018-12-16T07:29:53.620Z,29.60
2018-12-16T07:32:22.545Z,33.87
2018-12-16T07:34:51.416Z,28.33
2018-12-16T07:37:20.289Z,26.63
2018-12-16T07:39:49.204Z,28.93
2018-12-16T07:42:18.112Z,28.13
2018-12-16T07:44:46.982Z,25.73
2018-12-16T07:47:16.461Z,25.17
2018-12-16T07:49:45.394Z,27.17
2018-12-16T07:52:14.372Z,32.00
2018-12-16T07:54:43.244Z,27.47
2018-12-16T07:57:12.621Z,27.30
2018-12-16T07:59:42.469Z,28.40
2018-12-16T08:02:11.467Z,25.77
2018-12-16T08:04:40.401Z,27.07
2018-12-16T08:07:12.233Z,24.33
2018-12-16T08:09:41.068Z,26.50
2018-12-16T08:12:09.928Z,27.53
2018-12-16T08:14:38.884Z,29.70
2018-12-16T08:17:07.778Z,33.53
2018-12-16T08:19:36.751Z,27.83
2018-12-16T08:22:05.653Z,30.33
2018-12-16T08:24:34.641Z,27.40
2018-12-16T08:27:03.469Z,31.00
2018-12-16T08:29:32.413Z,24.77
2018-12-16T08:32:02.246Z,28.17
2018-12-16T08:34:31.452Z,28.93
2018-12-16T08:37:00.289Z,28.63
2018-12-16T08:39:29.321Z,29.87
2018-12-16T08:41:58.854Z,31.23
2018-12-16T08:44:28.906Z,30.47
2018-12-16T08:46:57.761Z,29.47
2018-12-16T08:49:26.561Z,28.97
2018-12-16T08:51:55.397Z,25.93
2018-12-16T08:54:30.086Z,26.87
2018-12-16T08:56:55.335Z,25.77
2018-12-16T08:59:24.165Z,27.57
2018-12-16T09:01:53.749Z,29.73
2018-12-16T09:04:22.802Z,26.43
2018-12-16T09:06:51.625Z,29.87
2018-12-16T09:09:20.934Z,32.97
2018-12-16T09:11:49.910Z,30.77
2018-12-16T09:14:18.813Z,27.33
2018-12-16T09:16:47.851Z,30.13
2018-12-16T09:19:16.716Z,25.43
2018-12-16T09:21:45.798Z,30.57
2018-12-16T09:24:14.630Z,34.93
2018-12-16T09:26:43.581Z,28.63
2018-12-16T09:29:12.462Z,29.83
2018-12-16T09:31:41.296Z,26.73
2018-12-16T09:34:10.257Z,31.33
2018-12-16T09:36:39.460Z,28.87
2018-12-16T09:39:08.884Z,24.67
2018-12-16T09:41:37.752Z,29.80
2018-12-16T09:44:06.724Z,27.03
2018-12-16T09:46:36.541Z,32.80
2018-12-16T09:49:05.456Z,29.20
2018-12-16T09:51:34.856Z,27.33
2018-12-16T09:54:04.606Z,28.30
2018-12-16T09:56:34.055Z,29.17
2018-12-16T09:59:03.427Z,23.33
2018-12-16T10:01:32.493Z,26.93
2018-12-16T10:04:01.324Z,31.57
2018-12-16T10:06:30.614Z,28.33
2018-12-16T10:08:59.938Z,28.73
2018-12-16T10:11:28.902Z,24.97
2018-12-16T10:13:57.810Z,27.80
2018-12-16T10:16:26.721Z,28.43
2018-12-16T10:18:55.585Z,26.03
2018-12-16T10:21:24.596Z,29.87
2018-12-16T10:23:53.483Z,23.80
2018-12-16T10:26:22.465Z,27.67
2018-12-16T10:28:51.355Z,33.87
2018-12-16T10:31:20.262Z,28.00
2018-12-16T10:33:49.200Z,28.60
2018-12-16T10:36:18.258Z,24.90
2018-12-16T10:38:47.097Z,26.90
2018-12-16T10:41:15.941Z,27.73
2018-12-16T10:43:45.636Z,29.97
2018-12-16T10:46:17.448Z,31.03
2018-12-16T10:48:46.465Z,29.73
2018-12-16T10:51:15.370Z,29.30
2018-12-16T10:53:45.361Z,26.70
2018-12-16T10:56:14.521Z,27.50
2018-12-16T10:58:44.394Z,26.17
2018-12-16T11:01:18.658Z,27.20
2018-12-16T11:03:47.561Z,27.73
2018-12-16T11:06:16.484Z,26.70
2018-12-16T11:08:45.933Z,28.13
2018-12-16T11:11:14.766Z,25.07
2018-12-16T11:13:43.668Z,27.53
2018-12-16T11:16:12.578Z,28.53
2018-12-16T11:18:41.557Z,25.17
2018-12-16T11:21:10.545Z,27.60
2018-12-16T11:23:39.444Z,31.20
2018-12-16T11:26:09.132Z,25.67
2018-12-16T11:28:38.133Z,23.43
2018-12-16T11:31:07.005Z,25.63
2018-12-16T11:33:37.623Z,28.73
2018-12-16T11:36:06.476Z,27.37
2018-12-16T11:38:35.343Z,25.13
2018-12-16T11:41:04.635Z,26.37
2018-12-16T11:43:33.668Z,25.17
2018-12-16T11:46:02.572Z,26.27
2018-12-16T11:48:31.460Z,25.10
2018-12-16T11:51:00.485Z,26.20
2018-12-16T11:53:29.401Z,28.07
2018-12-16T11:55:58.339Z,27.37
2018-12-16T11:58:27.333Z,29.57
2018-12-16T12:00:56.214Z,26.87
2018-12-16T12:03:25.044Z,29.37
2018-12-16T12:05:55.898Z,27.77
2018-12-16T12:08:24.834Z,23.27
2018-12-16T12:10:53.893Z,25.33
2018-12-16T12:13:22.777Z,25.37
2018-12-16T12:15:51.676Z,28.00
2018-12-16T12:18:20.544Z,27.77
2018-12-16T12:20:49.454Z,29.30
2018-12-16T12:23:18.358Z,25.77
2018-12-16T12:25:47.293Z,25.90
2018-12-16T12:28:16.394Z,30.13
2018-12-16T12:30:45.340Z,27.00
2018-12-16T12:33:14.703Z,27.23
2018-12-16T12:35:43.540Z,27.43
2018-12-16T12:38:12.494Z,29.63
2018-12-16T12:40:41.389Z,26.70
2018-12-16T12:43:10.216Z,26.67
2018-12-16T12:45:39.170Z,26.87
2018-12-16T12:48:08.013Z,26.27
2018-12-16T12:50:36.936Z,26.10
2018-12-16T12:53:05.837Z,28.23
2018-12-16T12:55:34.760Z,25.27
2018-12-16T12:58:03.803Z,26.47
2018-12-16T13:00:33.465Z,30.73
2018-12-16T13:03:02.547Z,29.03
2018-12-16T13:05:36.958Z,26.67
2018-12-16T13:08:02.372Z,34.40
2018-12-16T13:10:31.365Z,29.57
2018-12-16T13:13:00.340Z,29.97
2018-12-16T13:15:29.245Z,26.47
2018-12-16T13:17:58.077Z,29.83
2018-12-16T13:20:28.570Z,30.77
2018-12-16T13:22:57.696Z,30.97
2018-12-16T13:26:04.702Z,24.93
2018-12-16T13:28:33.628Z,29.73
2018-12-16T13:31:02.618Z,28.87
2018-12-16T13:33:31.518Z,29.33
2018-12-16T13:36:00.385Z,30.20
2018-12-16T13:38:29.432Z,26.60
2018-12-16T13:40:58.378Z,29.77
2018-12-16T13:43:27.284Z,29.03
2018-12-16T13:45:56.172Z,28.57
2018-12-16T13:48:25.037Z,30.80
2018-12-16T13:50:53.936Z,31.30
2018-12-16T13:53:22.848Z,31.20
2018-12-16T13:55:51.664Z,27.80
2018-12-16T13:58:20.510Z,25.13
2018-12-16T14:00:49.345Z,25.13
2018-12-16T14:03:18.185Z,26.73
2018-12-16T14:05:47.117Z,32.03
2018-12-16T14:08:16.796Z,33.10
2018-12-16T14:10:45.668Z,29.47
2018-12-16T14:13:14.554Z,31.47
2018-12-16T14:15:43.653Z,28.87
2018-12-16T14:18:12.478Z,27.77
2018-12-16T14:20:41.323Z,32.07
2018-12-16T14:23:10.264Z,30.10
2018-12-16T14:25:39.109Z,27.17
2018-12-16T14:28:08.121Z,33.87
2018-12-16T14:30:37.400Z,28.57
2018-12-16T14:33:06.512Z,29.30
2018-12-16T14:35:35.384Z,32.60
2018-12-16T14:38:04.792Z,32.93
2018-12-16T14:40:33.698Z,32.30
2018-12-16T14:43:02.614Z,30.47
2018-12-16T14:45:31.569Z,28.90
2018-12-16T14:48:00.526Z,29.27
2018-12-16T14:50:29.359Z,27.53
2018-12-16T14:52:58.341Z,31.83
2018-12-16T14:55:27.866Z,30.23
2018-12-16T14:57:56.698Z,30.10
2018-12-16T15:00:25.589Z,28.30
2018-12-16T15:02:55.642Z,29.13
2018-12-16T15:05:24.604Z,31.60
2018-12-16T15:07:53.775Z,33.20
2018-12-16T15:10:22.761Z,31.50
2018-12-16T15:12:51.705Z,31.50
2018-12-16T15:15:21.648Z,35.50
2018-12-16T15:17:50.598Z,30.83
2018-12-16T15:20:19.817Z,28.17
2018-12-16T15:22:48.601Z,33.03
2018-12-16T15:25:17.489Z,32.37
2018-12-16T15:27:46.313Z,27.73
2018-12-16T15:30:15.174Z,27.17
2018-12-16T15:32:44.286Z,28.97
2018-12-16T15:35:13.157Z,26.23
2018-12-16T15:37:42.057Z,30.57
2018-12-16T15:40:10.964Z,25.50
2018-12-16T15:42:39.937Z,27.37
2018-12-16T15:45:10.281Z,29.03
2018-12-16T15:47:39.310Z,31.27
2018-12-16T15:50:09.709Z,33.07
2018-12-16T15:52:38.674Z,29.80
2018-12-16T15:55:09.934Z,28.63
2018-12-16T15:57:40.787Z,31.63
2018-12-16T16:00:10.074Z,32.47
2018-12-16T16:02:39.208Z,30.83
2018-12-16T16:05:08.252Z,32.90
2018-12-16T16:07:37.769Z,31.93
2018-12-16T16:10:08.153Z,29.40
2018-12-16T16:12:37.073Z,28.13
2018-12-16T16:15:06.789Z,27.03
2018-12-16T16:17:35.704Z,26.97
2018-12-16T16:20:05.602Z,29.97
2018-12-16T16:22:34.580Z,28.60
2018-12-16T16:25:03.588Z,29.87
2018-12-16T16:27:32.580Z,32.33
2018-12-16T16:30:01.500Z,28.90
2018-12-16T16:32:31.580Z,27.77
2018-12-16T16:35:00.441Z,30.20
2018-12-16T16:37:29.361Z,31.83
2018-12-16T16:39:58.386Z,33.33
2018-12-16T16:42:27.348Z,32.43
2018-12-16T16:44:56.228Z,30.20
2018-12-16T16:47:24.278Z,34.23
2018-12-16T16:49:53.381Z,30.10
2018-12-16T16:52:22.292Z,31.43
2018-12-16T16:54:51.776Z,31.70
2018-12-16T16:57:20.698Z,31.00
2018-12-16T16:59:49.527Z,31.10
2018-12-16T17:02:19.380Z,27.97
2018-12-16T17:04:48.273Z,31.63
2018-12-16T17:07:17.137Z,30.33
2018-12-16T17:09:46.056Z,29.87
2018-12-16T17:12:14.941Z,29.50
2018-12-16T17:14:43.837Z,32.80
2018-12-16T17:17:12.722Z,29.47
2018-12-16T17:19:41.612Z,30.63
2018-12-16T17:22:10.510Z,31.13
2018-12-16T17:24:39.515Z,28.10
2018-12-16T17:27:08.495Z,32.40
2018-12-16T17:29:37.412Z,25.97
2018-12-16T17:32:06.307Z,28.10
2018-12-16T17:34:35.227Z,31.43
2018-12-16T17:37:04.065Z,31.67
2018-12-16T17:39:32.935Z,32.20
2018-12-16T17:42:01.832Z,30.40
2018-12-16T17:44:30.820Z,28.37
2018-12-16T17:46:59.705Z,29.50
2018-12-16T17:49:28.802Z,37.97
2018-12-16T17:51:58.613Z,33.40
2018-12-16T17:54:27.509Z,27.83
2018-12-16T17:56:56.392Z,30.10
2018-12-16T17:59:25.280Z,28.70
2018-12-16T18:01:54.480Z,29.87
2018-12-16T18:04:23.377Z,30.63
2018-12-16T18:06:52.260Z,30.37
2018-12-16T18:09:21.281Z,29.80
2018-12-16T18:11:50.245Z,30.03
2018-12-16T18:14:19.083Z,32.70
2018-12-16T18:16:49.364Z,24.53
2018-12-16T18:19:18.252Z,26.33
2018-12-16T18:21:47.584Z,25.47
2018-12-16T18:24:16.453Z,31.30
2018-12-16T18:26:45.441Z,26.87
2018-12-16T18:29:14.349Z,31.00
2018-12-16T18:31:43.212Z,29.43
2018-12-16T18:34:12.132Z,28.50
2018-12-16T18:36:41.020Z,27.93
2018-12-16T18:39:10.412Z,30.27
2018-12-16T18:41:40.295Z,32.37
2018-12-16T18:44:09.474Z,31.20
2018-12-16T18:46:38.370Z,27.73
2018-12-16T18:49:07.927Z,27.63
2018-12-16T18:51:37.179Z,23.90
2018-12-16T18:54:06.108Z,28.17
2018-12-16T18:56:35.104Z,24.10
2018-12-16T18:59:04.027Z,22.77
2018-12-16T19:01:32.938Z,25.73
2018-12-16T19:04:01.729Z,29.53
2018-12-16T19:06:31.070Z,32.10
2018-12-16T19:08:59.967Z,28.13
2018-12-16T19:11:29.985Z,27.10
2018-12-16T19:13:58.877Z,25.87
2018-12-16T19:16:28.656Z,24.33
2018-12-16T19:18:57.970Z,23.20
2018-12-16T19:21:27.106Z,25.17
2018-12-16T19:23:56.084Z,25.37
2018-12-16T19:26:25.018Z,30.47
2018-12-16T19:28:53.953Z,22.50
2018-12-16T19:31:22.833Z,26.73
2018-12-16T19:33:51.852Z,25.20
2018-12-16T19:36:20.818Z,25.80
2018-12-16T19:38:49.728Z,24.07
2018-12-16T19:41:18.611Z,22.50
2018-12-16T19:43:47.508Z,24.43
2018-12-16T19:46:16.592Z,22.17
2018-12-16T19:48:45.468Z,21.90
2018-12-16T19:51:14.480Z,26.40
2018-12-16T19:53:43.452Z,23.97
2018-12-16T19:56:12.276Z,21.33
2018-12-16T19:58:41.210Z,19.37
2018-12-16T20:01:10.130Z,21.50
2018-12-16T20:03:43.281Z,19.60
2018-12-16T20:06:17.576Z,21.80
2018-12-16T20:08:46.409Z,21.87
2018-12-16T20:11:15.317Z,22.10
2018-12-16T20:13:44.209Z,21.97
2018-12-16T20:16:13.128Z,19.57
2018-12-16T20:18:42.432Z,18.83
2018-12-16T20:21:11.314Z,18.83
2018-12-16T20:23:40.297Z,18.70
2018-12-16T20:26:09.180Z,17.80
2018-12-16T20:28:38.071Z,18.87
2018-12-16T20:31:06.951Z,19.20
2018-12-16T20:33:35.965Z,20.53
2018-12-16T20:36:04.940Z,17.13
2018-12-16T20:38:33.831Z,19.30
2018-12-16T20:41:02.850Z,19.50
2018-12-16T20:43:31.721Z,20.13
2018-12-16T20:46:00.899Z,21.83
2018-12-16T20:48:29.900Z,19.70
2018-12-16T20:50:58.724Z,20.10
2018-12-16T20:53:27.733Z,20.57
2018-12-16T20:55:56.589Z,21.30
2018-12-16T20:58:25.601Z,20.60
2018-12-16T21:00:55.415Z,19.80
2018-12-16T21:03:24.335Z,24.10
2018-12-16T21:05:53.713Z,25.93
2018-12-16T21:08:22.564Z,21.27
2018-12-16T21:10:51.452Z,23.73
2018-12-16T21:13:25.741Z,22.40
2018-12-16T21:15:59.881Z,21.87
2018-12-16T21:18:30.435Z,21.17
2018-12-16T21:20:59.400Z,21.20
2018-12-16T21:23:28.512Z,20.20
2018-12-16T21:25:57.489Z,20.70
2018-12-16T21:28:26.376Z,22.43
2018-12-16T21:30:55.262Z,21.13
2018-12-16T21:33:24.280Z,19.70
2018-12-16T21:35:53.240Z,18.00
2018-12-16T21:38:22.131Z,21.63
2018-12-16T21:40:51.025Z,19.67
2018-12-16T21:43:20.925Z,19.23
2018-12-16T21:45:49.832Z,17.73
2018-12-16T21:48:18.742Z,20.30
2018-12-16T21:50:47.717Z,19.40
2018-12-16T21:53:16.617Z,17.33
2018-12-16T21:55:45.441Z,20.30
2018-12-16T21:58:14.313Z,17.90
2018-12-16T22:00:43.277Z,18.80
2018-12-16T22:03:12.169Z,16.10
2018-12-16T22:05:41.224Z,19.20
2018-12-16T22:08:10.051Z,17.23
2018-12-16T22:10:39.014Z,17.13
2018-12-16T22:13:07.985Z,18.00
2018-12-16T22:15:37.058Z,20.13
2018-12-16T22:18:05.901Z,17.87
2018-12-16T22:20:34.982Z,18.10
2018-12-16T22:23:04.876Z,20.10
2018-12-16T22:25:33.960Z,17.70
2018-12-16T22:28:02.821Z,18.83
2018-12-16T22:30:31.829Z,18.90
2018-12-16T22:33:00.796Z,17.30
2018-12-16T22:35:29.688Z,19.13
2018-12-16T22:37:58.577Z,16.87
2018-12-16T22:40:27.809Z,15.97
2018-12-16T22:42:56.798Z,16.87
2018-12-16T22:45:25.657Z,16.83
2018-12-16T22:47:54.563Z,16.47
2018-12-16T22:50:24.478Z,19.47
2018-12-16T22:52:53.407Z,22.20
2018-12-16T22:55:22.369Z,18.17
2018-12-16T22:57:51.273Z,18.93
2018-12-16T23:00:20.283Z,16.03
2018-12-16T23:02:51.153Z,19.43
2018-12-16T23:05:20.084Z,20.00
2018-12-16T23:07:49.064Z,17.73
2018-12-16T23:10:17.957Z,20.80
2018-12-16T23:12:46.879Z,17.90
2018-12-16T23:15:15.832Z,18.70
2018-12-16T23:17:44.715Z,21.47
2018-12-16T23:20:20.173Z,16.87
2018-12-16T23:22:49.060Z,16.73
2018-12-16T23:25:17.982Z,17.63
2018-12-16T23:27:46.915Z,20.60
2018-12-16T23:30:15.824Z,20.40
2018-12-16T23:32:44.733Z,17.13
2018-12-16T23:35:13.552Z,16.93
2018-12-16T23:37:42.397Z,20.00
2018-12-16T23:40:11.300Z,20.43
2018-12-16T23:42:40.195Z,20.50
2018-12-16T23:45:09.801Z,16.77
2018-12-16T23:47:38.685Z,18.80
2018-12-16T23:50:07.830Z,16.73
2018-12-16T23:52:36.652Z,19.23
2018-12-16T23:55:06.476Z,18.03
2018-12-16T23:57:35.454Z,21.57
